Time;durP1;ratioP1;P1;durP2;ratioP2;P2;SDS_P1;SDS_P2;PMS_P1;PMS_P2;Temp;Humidity;BMP_temperature;BMP_pressure;BME280_temperature;BME280_humidity;BME280_pressure;Samples;Min_cycle;Max_cycle;Signal;HPM_P1;HPM_P2
2021/05/05 00:01:35;;;;;;;;;;;;;;;;;;5081760;28;32028;-76
2021/05/05 00:04:00;;;;;;;;;;;;;;;;;;5083668;28;32917;-76
2021/05/05 00:06:26;;;;;;;;;;;;;;;;;;5083441;28;32856;-76
2021/05/05 00:08:51;;;;;;;;;;;;;;;;;;5084191;28;31899;-77
2021/05/05 00:11:17;;;;;;;;;;;;;;;;;;5082808;28;32753;-76
2021/05/05 00:13:42;;;;;;;;;;;;;;;;;;5080946;28;33831;-74
2021/05/05 00:16:08;;;;;;;;;;;;;;;;;;5084083;28;32813;-75
2021/05/05 00:18:33;;;;;;;;;;;;;;;;;;5083764;28;32954;-77
2021/05/05 00:20:59;;;;;;;;;;;;;;;;;;5080929;28;32982;-76
2021/05/05 00:23:24;;;;;;;;;;;;;;;;;;5086000;28;33617;-76
2021/05/05 00:25:49;;;;;;;;;;;;;;;;;;5090714;28;32486;-76
2021/05/05 00:28:15;;;;;;;;;;;;;;;;;;5088034;28;32073;-73
2021/05/05 00:30:40;;;;;;;;;;;;;;;;;;5082443;28;32220;-76
2021/05/05 00:33:06;;;;;;;;;;;;;;;;;;5082059;28;33730;-76
2021/05/05 00:35:31;;;;;;;;;;;;;;;;;;5081729;28;33206;-76
2021/05/05 00:37:57;;;;;;;;;;;;;;;;;;5081623;28;31785;-76
2021/05/05 00:40:22;;;;;;;;;;;;;;;;;;5082609;28;32330;-76
2021/05/05 00:42:48;;;;;;;;;;;;;;;;;;5081971;28;32761;-76
2021/05/05 00:45:13;;;;;;;;;;;;;;;;;;5082112;28;32549;-76
2021/05/05 00:47:39;;;;;;;;;;;;;;;;;;5082625;28;32014;-75
2021/05/05 00:50:05;;;;;;;;;;;;;;;;;;5082002;28;31914;-75
2021/05/05 00:52:30;;;;;;;;;;;;;;;;;;5097601;28;33427;-75
2021/05/05 00:54:56;;;;;;;;;;;;;;;;;;5081862;28;33370;-76
2021/05/05 00:57:21;;;;;;;;;;;;;;;;;;5080233;28;31594;-77
2021/05/05 00:59:47;;;;;;;;;;;;;;;;;;5082037;28;33164;-77
2021/05/05 01:02:12;;;;;;;;;;;;;;;;;;5081545;28;33512;-72
2021/05/05 01:04:37;;;;;;;;;;;;;;;;;;5081589;28;32431;-72
2021/05/05 01:07:03;;;;;;;;;;;;;;;;;;5079719;28;31836;-72
2021/05/05 01:09:29;;;;;;;;;;;;;;;;;;5080486;28;30807;-72
2021/05/05 01:11:54;;;;;;;;;;;;;;;;;;5080537;28;31306;-72
2021/05/05 01:14:20;;;;;;;;;;;;;;;;;;5078887;28;32579;-72
2021/05/05 01:16:45;;;;;;;;;;;;;;;;;;5080258;28;32787;-72
2021/05/05 01:19:11;;;;;;;;;;;;;;;;;;5079882;28;31025;-72
2021/05/05 01:21:36;;;;;;;;;;;;;;;;;;5080914;28;32989;-72
2021/05/05 01:24:02;;;;;;;;;;;;;;;;;;5081284;28;33377;-72
2021/05/05 01:26:27;;;;;;;;;;;;;;;;;;5096894;28;31764;-72
2021/05/05 01:28:57;;;;;;;;;;;;;;;;;;5079641;28;30729;-72
2021/05/05 01:31:22;;;;;;;;;;;;;;;;;;5081518;28;32756;-72
2021/05/05 01:33:48;;;;;;;;;;;;;;;;;;5082207;28;32189;-72
2021/05/05 01:36:14;;;;;;;;;;;;;;;;;;5083152;28;30518;-72
2021/05/05 01:38:39;;;;;;;;;;;;;;;;;;5084760;28;33002;-72
2021/05/05 01:41:04;;;;;;;;;;;;;;;;;;5084552;28;32822;-72
2021/05/05 01:43:30;;;;;;;;;;;;;;;;;;5084427;28;33020;-72
2021/05/05 01:45:55;;;;;;;;;;;;;;;;;;5085250;28;32428;-72
2021/05/05 01:48:21;;;;;;;;;;;;;;;;;;5084653;28;33099;-72
2021/05/05 01:50:47;;;;;;;;;;;;;;;;;;5085295;28;32782;-72
2021/05/05 01:53:14;;;;;;;;;;;;;;;;;;5082657;28;32461;-72
2021/05/05 01:55:40;;;;;;;;;;;;;;;;;;5083488;28;30343;-72
2021/05/05 01:58:10;;;;;;;;;;;;;;;;;;5083638;28;32366;-72
2021/05/05 02:00:35;;;;;;;;;;;;;;;;;;5084159;28;32985;-72
2021/05/05 02:03:03;;;;;;;;;;;;;;;;;;5084391;28;33525;-72
2021/05/05 02:05:32;;;;;;;;;;;;;;;;;;5082441;28;31898;-72
2021/05/05 02:08:13;;;;;;;;;;;;;;;;;;5082953;28;31361;-72
2021/05/05 02:10:40;;;;;;;;;;;;;;;;;;5084800;28;33714;-72
2021/05/05 02:13:06;;;;;;;;;;;;;;;;;;5083916;28;32699;-72
2021/05/05 02:15:32;;;;;;;;;;;;;;;;;;5082771;28;30427;-72
2021/05/05 02:18:00;;;;;;;;;;;;;;;;;;5099981;28;31953;-72
2021/05/05 02:20:25;;;;;;;;;;;;;;;;;;5083574;28;32873;-72
2021/05/05 02:22:52;;;;;;;;;;;;;;;;;;5083865;28;32593;-72
2021/05/05 02:25:18;;;;;;;;;;;;;;;;;;5083966;28;32015;-72
2021/05/05 02:27:44;;;;;;;;;;;;;;;;;;5082961;28;30814;-72
2021/05/05 02:30:14;;;;;;;;;;;;;;;;;;5082626;28;31398;-72
2021/05/05 02:32:50;;;;;;;;;;;;;;;;;;5083790;28;33001;-72
2021/05/05 02:35:16;;;;;;;;;;;;;;;;;;5084565;28;31989;-72
2021/05/05 02:37:43;;;;;;;;;;;;;;;;;;5084604;28;32473;-72
2021/05/05 02:40:10;;;;;;;;;;;;;;;;;;5083520;28;33624;-72
2021/05/05 02:42:35;;;;;;;;;;;;;;;;;;5082095;28;31044;-72
2021/05/05 02:45:01;;;;;;;;;;;;;;;;;;5081687;28;31568;-72
2021/05/05 02:47:26;;;;;;;;;;;;;;;;;;5083563;28;32483;-72
2021/05/05 02:49:52;;;;;;;;;;;;;;;;;;5083163;28;33087;-72
2021/05/05 02:52:18;;;;;;;;;;;;;;;;;;5081969;28;31819;-72
2021/05/05 02:54:43;;;;;;;;;;;;;;;;;;5082200;28;30317;-72
2021/05/05 02:57:09;;;;;;;;;;;;;;;;;;5084189;28;33056;-73
2021/05/05 02:59:34;;;;;;;;;;;;;;;;;;5082985;28;32452;-72
2021/05/05 03:02:00;;;;;;;;;;;;;;;;;;5083053;28;32623;-72
2021/05/05 03:04:25;;;;;;;;;;;;;;;;;;5084021;28;31809;-72
2021/05/05 03:06:51;;;;;;;;;;;;;;;;;;5083166;28;33316;-72
2021/05/05 03:09:16;;;;;;;;;;;;;;;;;;5083072;28;32789;-72
2021/05/05 03:11:42;;;;;;;;;;;;;;;;;;5083907;28;33234;-72
2021/05/05 03:14:07;;;;;;;;;;;;;;;;;;5084054;28;33917;-73
2021/05/05 03:16:33;;;;;;;;;;;;;;;;;;5080546;28;33213;-72
2021/05/05 03:18:58;;;;;;;;;;;;;;;;;;5083830;28;32824;-72
2021/05/05 03:21:24;;;;;;;;;;;;;;;;;;5098748;28;33412;-72
2021/05/05 03:23:49;;;;;;;;;;;;;;;;;;5084051;28;32782;-77
2021/05/05 03:26:15;;;;;;;;;;;;;;;;;;5082958;28;32198;-77
2021/05/05 03:28:40;;;;;;;;;;;;;;;;;;5082995;28;33808;-77
2021/05/05 03:31:05;;;;;;;;;;;;;;;;;;5080768;28;32462;-77
2021/05/05 03:33:31;;;;;;;;;;;;;;;;;;5083679;28;31814;-76
2021/05/05 03:35:56;;;;;;;;;;;;;;;;;;5083531;28;32473;-77
2021/05/05 03:38:22;;;;;;;;;;;;;;;;;;5082711;28;33850;-77
2021/05/05 03:40:47;;;;;;;;;;;;;;;;;;5083500;28;32375;-76
2021/05/05 03:43:13;;;;;;;;;;;;;;;;;;5080279;28;31767;-76
2021/05/05 03:45:38;;;;;;;;;;;;;;;;;;5083030;28;32915;-76
2021/05/05 03:48:04;;;;;;;;;;;;;;;;;;5083448;28;32901;-77
2021/05/05 03:50:29;;;;;;;;;;;;;;;;;;5080282;28;32580;-75
2021/05/05 03:52:55;;;;;;;;;;;;;;;;;;5083454;28;31782;-76
2021/05/05 03:55:20;;;;;;;;;;;;;;;;;;5081881;28;32289;-77
2021/05/05 03:57:46;;;;;;;;;;;;;;;;;;5081603;28;32731;-76
2021/05/05 04:00:11;;;;;;;;;;;;;;;;;;5081574;28;32647;-77
2021/05/05 04:02:41;;;;;;;;;;;;;;;;;;5082002;28;32598;-76
2021/05/05 04:05:06;;;;;;;;;;;;;;;;;;5082082;28;32309;-76
2021/05/05 04:07:32;;;;;;;;;;;;;;;;;;5082320;28;33462;-76
2021/05/05 04:09:57;;;;;;;;;;;;;;;;;;5082556;28;33527;-75
2021/05/05 04:12:23;;;;;;;;;;;;;;;;;;5083171;28;31926;-76
2021/05/05 04:14:48;;;;;;;;;;;;;;;;;;5081377;28;31598;-76
2021/05/05 04:17:14;;;;;;;;;;;;;;;;;;5083215;28;32763;-75
2021/05/05 04:19:39;;;;;;;;;;;;;;;;;;5081954;28;33510;-76
2021/05/05 04:22:05;;;;;;;;;;;;;;;;;;5081381;28;31735;-76
2021/05/05 04:24:30;;;;;;;;;;;;;;;;;;5082254;28;32743;-72
2021/05/05 04:26:56;;;;;;;;;;;;;;;;;;5082307;28;33694;-73
2021/05/05 04:29:21;;;;;;;;;;;;;;;;;;5082368;28;32536;-72
2021/05/05 04:31:47;;;;;;;;;;;;;;;;;;5082052;28;31790;-72
2021/05/05 04:34:12;;;;;;;;;;;;;;;;;;5081605;28;32393;-72
2021/05/05 04:36:37;;;;;;;;;;;;;;;;;;5081892;28;32814;-72
2021/05/05 04:39:03;;;;;;;;;;;;;;;;;;5082556;28;32693;-72
2021/05/05 04:41:29;;;;;;;;;;;;;;;;;;5082785;28;32019;-72
2021/05/05 04:43:54;;;;;;;;;;;;;;;;;;5083139;28;32417;-73
2021/05/05 04:46:20;;;;;;;;;;;;;;;;;;5084444;28;32673;-73
2021/05/05 04:48:45;;;;;;;;;;;;;;;;;;5084936;28;33231;-73
2021/05/05 04:51:10;;;;;;;;;;;;;;;;;;5082331;28;32332;-73
2021/05/05 04:53:36;;;;;;;;;;;;;;;;;;5082390;28;32354;-72
2021/05/05 04:56:01;;;;;;;;;;;;;;;;;;5081106;28;33538;-72
2021/05/05 04:58:27;;;;;;;;;;;;;;;;;;5081573;28;32475;-73
2021/05/05 05:00:52;;;;;;;;;;;;;;;;;;5082216;28;32765;-73
2021/05/05 05:03:18;;;;;;;;;;;;;;;;;;5082490;28;32366;-72
2021/05/05 05:05:43;;;;;;;;;;;;;;;;;;5082225;28;32766;-72
2021/05/05 05:08:09;;;;;;;;;;;;;;;;;;5082359;28;32626;-72
2021/05/05 05:10:34;;;;;;;;;;;;;;;;;;5085726;28;32433;-72
2021/05/05 05:13:00;;;;;;;;;;;;;;;;;;5084969;28;32310;-72
2021/05/05 05:15:26;;;;;;;;;;;;;;;;;;5085631;28;32724;-72
2021/05/05 05:17:51;;;;;;;;;;;;;;;;;;5085685;28;32682;-73
2021/05/05 05:20:20;;;;;;;;;;;;;;;;;;5085246;28;31950;-73
2021/05/05 05:22:45;;;;;;;;;;;;;;;;;;5085357;28;32369;-72
2021/05/05 05:25:11;;;;;;;;;;;;;;;;;;5085587;28;32706;-72
2021/05/05 05:27:36;;;;;;;;;;;;;;;;;;5085691;28;33466;-72
2021/05/05 05:30:02;;;;;;;;;;;;;;;;;;5085664;28;32736;-72
2021/05/05 05:32:27;;;;;;;;;;;;;;;;;;5085488;28;32254;-73
2021/05/05 05:34:53;;;;;;;;;;;;;;;;;;5085563;28;33820;-70
2021/05/05 05:37:18;;;;;;;;;;;;;;;;;;5083085;28;32656;-71
2021/05/05 05:39:45;;;;;;;;;;;;;;;;;;5084486;28;32274;-71
2021/05/05 05:42:10;;;;;;;;;;;;;;;;;;5084749;28;33233;-71
2021/05/05 05:44:37;;;;;;;;;;;;;;;;;;5082074;28;32863;-71
2021/05/05 05:47:03;;;;;;;;;;;;;;;;;;5084259;28;33345;-72
2021/05/05 05:49:28;;;;;;;;;;;;;;;;;;5100859;28;31807;-73
2021/05/05 05:51:53;;;;;;;;;;;;;;;;;;5084381;28;32292;-71
2021/05/05 05:54:19;;;;;;;;;;;;;;;;;;5084005;28;33846;-71
2021/05/05 05:56:44;;;;;;;;;;;;;;;;;;5083961;28;32476;-71
2021/05/05 05:59:10;;;;;;;;;;;;;;;;;;5083483;28;32696;-72
2021/05/05 06:01:35;;;;;;;;;;;;;;;;;;5083912;28;32316;-71
2021/05/05 06:04:01;;;;;;;;;;;;;;;;;;5083989;28;33769;-71
2021/05/05 06:06:26;;;;;;;;;;;;;;;;;;5084871;28;34703;-72
2021/05/05 06:08:52;;;;;;;;;;;;;;;;;;5084999;28;32335;-72
2021/05/05 06:11:17;;;;;;;;;;;;;;;;;;5084450;28;32302;-72
2021/05/05 06:13:43;;;;;;;;;;;;;;;;;;5084845;28;32758;-72
2021/05/05 06:16:08;;;;;;;;;;;;;;;;;;5084827;28;33453;-72
2021/05/05 06:18:34;;;;;;;;;;;;;;;;;;5084616;28;31775;-72
2021/05/05 06:21:00;;;;;;;;;;;;;;;;;;5083724;28;32092;-72
2021/05/05 06:23:25;;;;;;;;;;;;;;;;;;5084405;28;32809;-72
2021/05/05 06:25:51;;;;;;;;;;;;;;;;;;5084467;28;33023;-72
2021/05/05 06:28:16;;;;;;;;;;;;;;;;;;5083388;28;31938;-72
2021/05/05 06:30:42;;;;;;;;;;;;;;;;;;5083667;28;32094;-72
2021/05/05 06:33:07;;;;;;;;;;;;;;;;;;5082761;28;30615;-72
2021/05/05 06:35:33;;;;;;;;;;;;;;;;;;5097090;28;32486;-73
2021/05/05 06:37:58;;;;;;;;;;;;;;;;;;5084553;28;32454;-72
2021/05/05 06:40:23;;;;;;;;;;;;;;;;;;5084423;28;32341;-72
2021/05/05 06:42:49;;;;;;;;;;;;;;;;;;5083255;28;32870;-76
2021/05/05 06:45:14;;;;;;;;;;;;;;;;;;5081090;28;32532;-77
2021/05/05 06:47:40;;;;;;;;;;;;;;;;;;5085572;28;31903;-71
2021/05/05 06:50:05;;;;;;;;;;;;;;;;;;5085594;28;32287;-76
2021/05/05 06:52:31;;;;;;;;;;;;;;;;;;5084043;28;32861;-73
2021/05/05 06:54:56;;;;;;;;;;;;;;;;;;5083874;28;32397;-73
2021/05/05 06:57:22;;;;;;;;;;;;;;;;;;5083997;28;31838;-75
2021/05/05 06:59:47;;;;;;;;;;;;;;;;;;5083305;28;32302;-75
2021/05/05 07:02:13;;;;;;;;;;;;;;;;;;5080772;28;32796;-76
2021/05/05 07:04:38;;;;;;;;;;;;;;;;;;5083864;28;32592;-76
2021/05/05 07:07:04;;;;;;;;;;;;;;;;;;5083901;28;31745;-77
2021/05/05 07:09:30;;;;;;;;;;;;;;;;;;5083646;28;33259;-75
2021/05/05 07:11:56;;;;;;;;;;;;;;;;;;5083806;28;32843;-74
2021/05/05 07:14:21;;;;;;;;;;;;;;;;;;5083629;28;32548;-77
2021/05/05 07:16:47;;;;;;;;;;;;;;;;;;5083895;28;32298;-78
2021/05/05 07:19:12;;;;;;;;;;;;;;;;;;5084024;28;32468;-75
2021/05/05 07:21:39;;;;;;;;;;;;;;;;;;5083787;28;32795;-80
2021/05/05 07:24:04;;;;;;;;;;;;;;;;;;5084208;28;33462;-77
2021/05/05 07:26:30;;;;;;;;;;;;;;;;;;5082522;28;31793;-75
2021/05/05 07:28:56;;;;;;;;;;;;;;;;;;5083865;28;32959;-75
2021/05/05 07:31:21;;;;;;;;;;;;;;;;;;5083408;28;32971;-74
2021/05/05 07:33:50;;;;;;;;;;;;;;;;;;5082019;28;32396;-76
2021/05/05 07:36:19;;;;;;;;;;;;;;;;;;5083534;28;31736;-79
2021/05/05 07:42:15;;;;;;;;;;;;;;;;;;5083640;28;32749;-80
2021/05/05 07:45:12;;;;;;;;;;;;;;;;;;5083281;28;33461;-79
2021/05/05 07:47:19;;;;;;;;;;;;;;;;;;5074778;28;31700;-77
2021/05/05 07:49:49;;;;;;;;;;;;;;;;;;5083315;28;32192;-77
2021/05/05 07:52:15;;;;;;;;;;;;;;;;;;5083373;28;33536;-78
2021/05/05 07:54:41;;;;;;;;;;;;;;;;;;5083168;28;33119;-73
2021/05/05 07:57:06;;;;;;;;;;;;;;;;;;5082742;28;31797;-78
2021/05/05 07:59:32;;;;;;;;;;;;;;;;;;5082727;28;32277;-74
2021/05/05 08:01:57;;;;;;;;;;;;;;;;;;5082084;28;33583;-80
2021/05/05 08:04:23;;;;;;;;;;;;;;;;;;5083097;28;33410;-78
2021/05/05 08:06:48;;;;;;;;;;;;;;;;;;5083049;28;31818;-78
2021/05/05 08:09:14;;;;;;;;;;;;;;;;;;5083117;28;32818;-74
2021/05/05 08:11:39;;;;;;;;;;;;;;;;;;5081240;28;31335;-74
2021/05/05 08:14:05;;;;;;;;;;;;;;;;;;5098092;28;33647;-78
2021/05/05 08:16:30;;;;;;;;;;;;;;;;;;5082731;28;31889;-78
2021/05/05 08:18:55;;;;;;;;;;;;;;;;;;5082064;28;33241;-73
2021/05/05 08:21:22;;;;;;;;;;;;;;;;;;5080379;28;30863;-74
2021/05/05 08:23:47;;;;;;;;;;;;;;;;;;5082686;28;32297;-73
2021/05/05 08:26:13;;;;;;;;;;;;;;;;;;5082605;28;31866;-73
2021/05/05 08:28:39;;;;;;;;;;;;;;;;;;5082792;28;33277;-73
2021/05/05 08:31:04;;;;;;;;;;;;;;;;;;5081897;28;37341;-74
2021/05/05 08:33:30;;;;;;;;;;;;;;;;;;5082898;28;32444;-73
2021/05/05 08:35:55;;;;;;;;;;;;;;;;;;5081517;28;32748;-74
2021/05/05 08:38:22;;;;;;;;;;;;;;;;;;5082675;28;33222;-74
2021/05/05 08:40:47;;;;;;;;;;;;;;;;;;5082421;28;32656;-74
2021/05/05 08:43:13;;;;;;;;;;;;;;;;;;5081800;28;32785;-75
2021/05/05 08:45:38;;;;;;;;;;;;;;;;;;5081767;28;31800;-73
2021/05/05 08:48:03;;;;;;;;;;;;;;;;;;5082117;28;33014;-74
2021/05/05 08:50:29;;;;;;;;;;;;;;;;;;5082408;28;32965;-73
2021/05/05 08:52:54;;;;;;;;;;;;;;;;;;5081506;28;32286;-73
2021/05/05 08:55:20;;;;;;;;;;;;;;;;;;5082404;28;31815;-73
2021/05/05 08:57:45;;;;;;;;;;;;;;;;;;5081171;28;33313;-73
2021/05/05 09:00:11;;;;;;;;;;;;;;;;;;5080702;28;32754;-74
2021/05/05 09:02:36;;;;;;;;;;;;;;;;;;5082367;28;33171;-73
2021/05/05 09:05:03;;;;;;;;;;;;;;;;;;5079224;28;31808;-73
2021/05/05 09:07:28;;;;;;;;;;;;;;;;;;5096920;28;31215;-73
2021/05/05 09:09:54;;;;;;;;;;;;;;;;;;5089454;28;32836;-73
2021/05/05 09:12:19;;;;;;;;;;;;;;;;;;5090355;28;32561;-73
2021/05/05 09:14:45;;;;;;;;;;;;;;;;;;5085922;28;31883;-75
2021/05/05 09:17:10;;;;;;;;;;;;;;;;;;5083678;28;32487;-74
2021/05/05 09:19:36;;;;;;;;;;;;;;;;;;5082434;28;33372;-75
2021/05/05 09:22:02;;;;;;;;;;;;;;;;;;5080871;28;33367;-74
2021/05/05 09:24:29;;;;;;;;;;;;;;;;;;5081235;28;31820;-74
2021/05/05 09:26:54;;;;;;;;;;;;;;;;;;5083652;28;32490;-73
2021/05/05 09:29:22;;;;;;;;;;;;;;;;;;5083320;28;32840;-75
2021/05/05 09:31:56;;;;;;;;;;;;;;;;;;5081033;28;32533;-74
2021/05/05 09:34:22;;;;;;;;;;;;;;;;;;5079081;28;31806;-72
2021/05/05 09:36:47;;;;;;;;;;;;;;;;;;5083404;28;33285;-72
2021/05/05 09:39:13;;;;;;;;;;;;;;;;;;5083656;28;32877;-73
2021/05/05 09:41:38;;;;;;;;;;;;;;;;;;5083834;28;32425;-73
2021/05/05 09:44:04;;;;;;;;;;;;;;;;;;5079552;28;31755;-73
2021/05/05 09:46:29;;;;;;;;;;;;;;;;;;5078892;28;32352;-72
2021/05/05 09:48:55;;;;;;;;;;;;;;;;;;5078760;28;33773;-73
2021/05/05 09:51:20;;;;;;;;;;;;;;;;;;5080501;28;32606;-73
2021/05/05 09:53:47;;;;;;;;;;;;;;;;;;5081521;28;31696;-73
2021/05/05 09:56:12;;;;;;;;;;;;;;;;;;5084343;28;33280;-73
2021/05/05 09:58:38;;;;;;;;;;;;;;;;;;5083917;28;32737;-73
2021/05/05 10:01:03;;;;;;;;;;;;;;;;;;5084535;28;33105;-74
2021/05/05 10:03:29;;;;;;;;;;;;;;;;;;5084995;28;32272;-74
2021/05/05 10:05:54;;;;;;;;;;;;;;;;;;5084020;28;33259;-72
2021/05/05 10:08:20;;;;;;;;;;;;;;;;;;5082338;28;32667;-72
2021/05/05 10:10:46;;;;;;;;;;;;;;;;;;5084648;28;32508;-73
2021/05/05 10:13:12;;;;;;;;;;;;;;;;;;5084403;28;31861;-72
2021/05/05 10:15:39;;;;;;;;;;;;;;;;;;5084355;28;32856;-71
2021/05/05 10:18:04;;;;;;;;;;;;;;;;;;5084666;28;32775;-73
2021/05/05 10:20:30;;;;;;;;;;;;;;;;;;5084470;28;32552;-73
2021/05/05 10:22:56;;;;;;;;;;;;;;;;;;5084162;28;32566;-73
2021/05/05 10:25:22;;;;;;;;;;;;;;;;;;5084335;28;33281;-74
2021/05/05 10:27:47;;;;;;;;;;;;;;;;;;5084441;28;32642;-75
2021/05/05 10:30:13;;;;;;;;;;;;;;;;;;5084181;28;32194;-77
2021/05/05 10:32:38;;;;;;;;;;;;;;;;;;5083244;28;32847;-74
2021/05/05 10:35:04;;;;;;;;;;;;;;;;;;5084493;28;32462;-74
2021/05/05 10:37:29;;;;;;;;;;;;;;;;;;5084184;28;32706;-75
2021/05/05 10:39:55;;;;;;;;;;;;;;;;;;5083768;28;33204;-75
2021/05/05 10:42:21;;;;;;;;;;;;;;;;;;5084295;28;31995;-73
2021/05/05 10:44:47;;;;;;;;;;;;;;;;;;5083660;28;32918;-74
2021/05/05 10:47:12;;;;;;;;;;;;;;;;;;5084335;28;32819;-72
2021/05/05 10:49:37;;;;;;;;;;;;;;;;;;5082918;28;32608;-73
2021/05/05 10:52:03;;;;;;;;;;;;;;;;;;5084068;28;31782;-73
2021/05/05 10:54:28;;;;;;;;;;;;;;;;;;5082834;28;32328;-76
2021/05/05 10:56:54;;;;;;;;;;;;;;;;;;5082878;28;33763;-75
2021/05/05 10:59:21;;;;;;;;;;;;;;;;;;5082749;28;32307;-76
2021/05/05 11:01:47;;;;;;;;;;;;;;;;;;5083088;28;31871;-77
2021/05/05 11:04:15;;;;;;;;;;;;;;;;;;5083744;28;32260;-76
2021/05/05 11:06:41;;;;;;;;;;;;;;;;;;5084830;28;33898;-76
2021/05/05 11:09:06;;;;;;;;;;;;;;;;;;5099861;28;32561;-74
2021/05/05 11:11:32;;;;;;;;;;;;;;;;;;5081944;28;31669;-76
2021/05/05 11:13:57;;;;;;;;;;;;;;;;;;5083958;28;32415;-76
2021/05/05 11:16:23;;;;;;;;;;;;;;;;;;5083230;28;33775;-77
2021/05/05 11:18:48;;;;;;;;;;;;;;;;;;5082911;28;32718;-74
2021/05/05 11:21:14;;;;;;;;;;;;;;;;;;5083872;28;32885;-74
2021/05/05 11:23:42;;;;;;;;;;;;;;;;;;5083118;28;32360;-74
2021/05/05 11:26:07;;;;;;;;;;;;;;;;;;5086874;28;32917;-73
2021/05/05 11:28:33;;;;;;;;;;;;;;;;;;5088381;28;32399;-73
2021/05/05 11:30:59;;;;;;;;;;;;;;;;;;5089292;28;31954;-73
2021/05/05 11:33:26;;;;;;;;;;;;;;;;;;5086183;28;31944;-75
2021/05/05 11:39:02;;;;;;;;;;;;;;;;;;5088183;28;33060;-72
2021/05/05 11:41:29;;;;;;;;;;;;;;;;;;5089229;28;32397;-72
2021/05/05 11:43:55;;;;;;;;;;;;;;;;;;5080817;28;33034;-72
2021/05/05 11:46:20;;;;;;;;;;;;;;;;;;5082566;28;32803;-73
2021/05/05 11:48:46;;;;;;;;;;;;;;;;;;5082429;28;33445;-73
2021/05/05 11:51:11;;;;;;;;;;;;;;;;;;5079879;28;31755;-72
2021/05/05 11:53:36;;;;;;;;;;;;;;;;;;5083217;28;33285;-73
2021/05/05 11:56:02;;;;;;;;;;;;;;;;;;5082326;28;33455;-72
2021/05/05 11:58:27;;;;;;;;;;;;;;;;;;5082419;28;32463;-72
2021/05/05 12:00:54;;;;;;;;;;;;;;;;;;5082101;28;32748;-72
2021/05/05 12:03:19;;;;;;;;;;;;;;;;;;5083104;28;32493;-72
2021/05/05 12:05:46;;;;;;;;;;;;;;;;;;5080100;28;32572;-72
2021/05/05 12:08:13;;;;;;;;;;;;;;;;;;5083043;28;33499;-71
2021/05/05 12:10:39;;;;;;;;;;;;;;;;;;5083199;28;31879;-71
2021/05/05 12:13:04;;;;;;;;;;;;;;;;;;5083072;28;33297;-72
2021/05/05 12:15:30;;;;;;;;;;;;;;;;;;5082292;28;32760;-72
2021/05/05 12:18:02;;;;;;;;;;;;;;;;;;5081510;28;32639;-72
2021/05/05 12:20:29;;;;;;;;;;;;;;;;;;5080444;28;32797;-72
2021/05/05 12:22:54;;;;;;;;;;;;;;;;;;5082753;28;32377;-71
2021/05/05 12:25:19;;;;;;;;;;;;;;;;;;5082764;28;33038;-73
2021/05/05 12:27:45;;;;;;;;;;;;;;;;;;5082970;28;32263;-73
2021/05/05 12:30:11;;;;;;;;;;;;;;;;;;5082323;28;32357;-72
2021/05/05 12:32:36;;;;;;;;;;;;;;;;;;5082700;28;32435;-73
2021/05/05 12:35:02;;;;;;;;;;;;;;;;;;5079513;28;32501;-74
2021/05/05 12:37:27;;;;;;;;;;;;;;;;;;5082757;28;32474;-79
2021/05/05 12:39:53;;;;;;;;;;;;;;;;;;5080693;28;31420;-78
2021/05/05 12:42:19;;;;;;;;;;;;;;;;;;5082631;28;32470;-76
2021/05/05 12:44:44;;;;;;;;;;;;;;;;;;5082667;28;32620;-82
2021/05/05 12:47:10;;;;;;;;;;;;;;;;;;5081738;28;32800;-75
2021/05/05 12:49:35;;;;;;;;;;;;;;;;;;5081737;28;32398;-77
2021/05/05 12:52:01;;;;;;;;;;;;;;;;;;5081883;28;32206;-73
2021/05/05 12:54:27;;;;;;;;;;;;;;;;;;5081547;28;33829;-78
2021/05/05 12:56:53;;;;;;;;;;;;;;;;;;5082542;28;32427;-76
2021/05/05 12:59:18;;;;;;;;;;;;;;;;;;5081749;28;31623;-77
2021/05/05 13:01:44;;;;;;;;;;;;;;;;;;5082419;28;32436;-80
2021/05/05 13:04:10;;;;;;;;;;;;;;;;;;5082315;28;33498;-72
2021/05/05 13:06:35;;;;;;;;;;;;;;;;;;5084571;28;33112;-71
2021/05/05 13:09:00;;;;;;;;;;;;;;;;;;5082535;28;32531;-78
2021/05/05 13:11:26;;;;;;;;;;;;;;;;;;5082395;28;32339;-77
2021/05/05 13:13:54;;;;;;;;;;;;;;;;;;5097729;28;32622;-72
2021/05/05 13:29:41;;;;;;;;;;;;;;;;;;5081888;28;32557;-71
2021/05/05 13:32:08;;;;;;;;;;;;;;;;;;5085454;28;33245;-71
2021/05/05 13:34:34;;;;;;;;;;;;;;;;;;5100810;28;32662;-73
2021/05/05 13:37:00;;;;;;;;;;;;;;;;;;5084855;28;32781;-72
2021/05/05 13:39:29;;;;;;;;;;;;;;;;;;5086776;28;31969;-72
2021/05/05 13:41:55;;;;;;;;;;;;;;;;;;5054337;28;32608;-72
2021/05/05 13:44:22;;;;;;;;;;;;;;;;;;5087098;28;32834;-70
2021/05/05 13:51:43;;;;;;;;;;;;;;;;;;5086631;28;32895;-72
2021/05/05 13:54:08;;;;;;;;;;;;;;;;;;5084671;28;32762;-71
2021/05/05 13:56:33;;;;;;;;;;;;;;;;;;5084320;28;33386;-71
2021/05/05 13:59:00;;;;;;;;;;;;;;;;;;5085375;28;31639;-71
2021/05/05 14:01:26;;;;;;;;;;;;;;;;;;5085165;28;32333;-72
2021/05/05 14:03:51;;;;;;;;;;;;;;;;;;5085042;28;32866;-71
2021/05/05 14:06:18;;;;;;;;;;;;;;;;;;5085410;28;32443;-71
2021/05/05 14:08:44;;;;;;;;;;;;;;;;;;5085272;28;31890;-71
2021/05/05 14:11:10;;;;;;;;;;;;;;;;;;5084407;28;32341;-71
2021/05/05 14:13:36;;;;;;;;;;;;;;;;;;5084835;28;32693;-72
2021/05/05 14:16:02;;;;;;;;;;;;;;;;;;5084381;28;32540;-71
2021/05/05 14:18:28;;;;;;;;;;;;;;;;;;5084789;28;31684;-72
2021/05/05 14:20:53;;;;;;;;;;;;;;;;;;5083670;28;33281;-72
2021/05/05 14:23:19;;;;;;;;;;;;;;;;;;5085009;28;33186;-71
2021/05/05 14:25:44;;;;;;;;;;;;;;;;;;5084154;28;32710;-72
2021/05/05 14:28:10;;;;;;;;;;;;;;;;;;5084424;28;32277;-72
2021/05/05 14:30:35;;;;;;;;;;;;;;;;;;5083176;28;31014;-74
2021/05/05 14:33:01;;;;;;;;;;;;;;;;;;5084884;28;32837;-73
2021/05/05 14:35:26;;;;;;;;;;;;;;;;;;5084650;28;33448;-72
2021/05/05 14:37:59;;;;;;;;;;;;;;;;;;5084555;28;31535;-72
2021/05/05 14:40:25;;;;;;;;;;;;;;;;;;5083894;28;32933;-72
2021/05/05 14:43:01;;;;;;;;;;;;;;;;;;5083800;28;32854;-72
2021/05/05 14:48:06;;;;;;;;;;;;;;;;;;5083291;28;31959;-72
2021/05/05 14:50:31;;;;;;;;;;;;;;;;;;5083209;28;32407;-72
2021/05/05 14:52:57;;;;;;;;;;;;;;;;;;5083696;28;33718;-72
2021/05/05 14:55:22;;;;;;;;;;;;;;;;;;5084579;28;32584;-73
2021/05/05 14:57:56;;;;;;;;;;;;;;;;;;5083082;28;31958;-71
2021/05/05 15:00:21;;;;;;;;;;;;;;;;;;5082594;28;32462;-72
2021/05/05 15:02:47;;;;;;;;;;;;;;;;;;5084011;28;33654;-73
2021/05/05 15:05:13;;;;;;;;;;;;;;;;;;5084179;28;32693;-73
2021/05/05 15:07:38;;;;;;;;;;;;;;;;;;5083417;28;31882;-73
2021/05/05 15:10:11;;;;;;;;;;;;;;;;;;5084055;28;32238;-73
2021/05/05 15:12:51;;;;;;;;;;;;;;;;;;5080761;28;32772;-73
2021/05/05 15:18:43;;;;;;;;;;;;;;;;;;5083924;28;32019;-73
2021/05/05 15:29:30;;;;;;;;;;;;;;;;;;5082670;28;31792;-69
2021/05/05 15:40:06;;;;;;;;;;;;;;;;;;5082403;28;33553;-73
2021/05/05 15:42:37;;;;;;;;;;;;;;;;;;5083782;28;31723;-72
2021/05/05 15:45:07;;;;;;;;;;;;;;;;;;5080345;28;32917;-72
2021/05/05 15:47:40;;;;;;;;;;;;;;;;;;5080417;28;32688;-72
2021/05/05 15:50:09;;;;;;;;;;;;;;;;;;5083369;28;31757;-73
2021/05/05 15:52:39;;;;;;;;;;;;;;;;;;5082751;28;32892;-72
2021/05/05 15:55:06;;;;;;;;;;;;;;;;;;5082388;28;34093;-73
2021/05/05 15:57:32;;;;;;;;;;;;;;;;;;5083217;28;32613;-73
2021/05/05 16:13:14;;;;;;;;;;;;;;;;;;5083086;28;32064;-73
2021/05/05 16:15:40;;;;;;;;;;;;;;;;;;5079913;28;32945;-72
2021/05/05 16:18:10;;;;;;;;;;;;;;;;;;5081629;28;31790;-72
2021/05/05 16:20:46;;;;;;;;;;;;;;;;;;5079778;28;32544;-73
2021/05/05 16:50:08;;;;;;;;;;;;;;;;;;5082767;28;32598;-77
2021/05/05 16:54:59;;;;;;;;;;;;;;;;;;5079265;28;32940;-78
2021/05/05 16:57:44;;;;;;;;;;;;;;;;;;5081849;28;33834;-78
2021/05/05 17:00:48;;;;;;;;;;;;;;;;;;5080217;28;32378;-77
2021/05/05 17:11:13;;;;;;;;;;;;;;;;;;5086149;28;34310;-78
2021/05/05 17:13:38;;;;;;;;;;;;;;;;;;5083047;28;32557;-79
2021/05/05 17:16:04;;;;;;;;;;;;;;;;;;5083052;28;32404;-79
2021/05/05 17:21:17;;;;;;;;;;;;;;;;;;5084482;28;32648;-77
2021/05/05 17:26:45;;;;;;;;;;;;;;;;;;5050752;28;33399;-77
2021/05/05 17:50:58;;;;;;;;;;;;;;;;;;5083547;28;32811;-79
2021/05/05 18:10:34;;;;;;;;;;;;;;;;;;5090798;28;33480;-75
2021/05/05 18:15:51;;;;;;;;;;;;;;;;;;5083894;28;32630;-75
2021/05/05 18:18:23;;;;;;;;;;;;;;;;;;5084180;28;32417;-75
2021/05/05 18:21:01;;;;;;;;;;;;;;;;;;5084861;28;32925;-75
2021/05/05 18:23:30;;;;;;;;;;;;;;;;;;5084091;28;32822;-76
2021/05/05 18:27:01;;;;;;;;;;;;;;;;;;5099685;28;30991;-76
2021/05/05 18:31:22;;;;;;;;;;;;;;;;;;5083870;28;32289;-74
2021/05/05 18:33:48;;;;;;;;;;;;;;;;;;5083456;28;32979;-76
2021/05/05 18:36:17;;;;;;;;;;;;;;;;;;5084765;28;32433;-75
2021/05/05 18:38:42;;;;;;;;;;;;;;;;;;5083865;28;31900;-76
2021/05/05 18:58:08;;;;;;;;;;;;;;;;;;5083322;28;32512;-76
2021/05/05 19:56:09;;;;;;;;;;;;;;;;;;5083769;28;32458;-75
2021/05/05 20:03:49;;;;;;;;;;;;;;;;;;5083562;28;33505;-75
2021/05/05 21:08:36;;;;;;;;;;;;;;;;;;5081241;28;33392;-75
2021/05/05 23:26:17;;;;;;;;;;;;;;;;;;5083891;28;33520;-75
2021/05/05 23:31:35;;;;;;;;;;;;;;;;;;5083844;28;31840;-78
2021/05/05 23:34:33;;;;;;;;;;;;;;;;;;5083442;28;32119;-79
